Steele, North Dakota
Current Conditions -  °F | °C
As of 10:52 PM on Tuesday 25 Nov 2014 (Local Time) from KBIS Reporting Station
Overcast Overcast  
Wind Chill:   Ceiling: 2700
Heat Index: 19°   Visibility: 10mi
Dew Point: 13°   Wind: 18mph
Humidity: 77%   Direction: 20°NNE
Pressure: 30.05"   Gusts: 26mph
Location:  46.85°N, 99.92°W
Report Text: KBIS 260452Z AUTO 02016G23KT 10SM BKN027 OVC037 M07/M11 A3005 RMK AO2 PK WND 02027/0410 SLP201 T10721106
Loading
Personal Weather Stations






























Interactive Weather Map New forecast layout! Learn more

10-Day Weather Forecast

Advertisements
Track Severe Weather on mobile